createdAt,value
2022-11-18T00:08:25.859Z,53.139
2022-11-18T00:23:28.108Z,54.143
2022-11-18T00:38:30.657Z,56.064
2022-11-18T00:53:33.211Z,55.536
2022-11-18T01:08:35.745Z,56.088
2022-11-18T01:23:38.240Z,55.94
2022-11-18T01:38:40.479Z,57.299
2022-11-18T01:53:42.721Z,56.312
2022-11-18T02:08:45.306Z,56.574
2022-11-18T02:23:47.766Z,54.601
2022-11-18T02:38:50.007Z,55.138
2022-11-18T02:53:52.310Z,55.524
2022-11-18T03:08:54.882Z,54.692
2022-11-18T03:23:57.143Z,56.024
2022-11-18T03:38:59.900Z,54.95
2022-11-18T03:54:02.148Z,56.334
2022-11-18T04:09:04.405Z,56.847
2022-11-18T04:24:06.747Z,57.058
2022-11-18T04:39:09.365Z,57.175
2022-11-18T04:54:11.713Z,55.602
2022-11-18T05:09:13.985Z,55.906
2022-11-18T05:24:16.971Z,55.367
2022-11-18T05:39:19.710Z,55.955
2022-11-18T05:54:22.269Z,55.999
2022-11-18T06:09:24.522Z,55.446
2022-11-18T06:24:26.780Z,57.092
2022-11-18T06:39:29.092Z,58.124
2022-11-18T06:54:31.455Z,57.56
2022-11-18T07:09:33.954Z,58.535
2022-11-18T07:24:36.668Z,57.091
2022-11-18T07:39:38.911Z,56.735
2022-11-18T07:54:41.296Z,58.103
2022-11-18T08:09:43.556Z,56.699
2022-11-18T08:24:45.908Z,58.128
2022-11-18T08:39:48.192Z,59.425
2022-11-18T08:54:50.622Z,57.844
2022-11-18T09:09:53.173Z,57.378
2022-11-18T09:24:55.395Z,57.71
2022-11-18T09:39:58.216Z,58.741
2022-11-18T09:55:00.900Z,57.017
2022-11-18T10:10:03.232Z,57.311
2022-11-18T10:25:05.762Z,56.62
2022-11-18T10:40:08.728Z,58.373
2022-11-18T10:55:11.378Z,59.891
2022-11-18T11:10:13.780Z,58.792
2022-11-18T11:25:16.692Z,57.093
2022-11-18T11:40:19.076Z,57.031
2022-11-18T11:55:21.310Z,57.466
2022-11-18T12:10:23.726Z,57.577
2022-11-18T12:25:26.026Z,58.524
2022-11-18T12:40:28.539Z,59.391
2022-11-18T12:55:31.300Z,60.468
2022-11-18T13:10:33.637Z,58.808
2022-11-18T13:25:35.830Z,58.078
2022-11-18T13:40:38.224Z,57.703
2022-11-18T13:55:40.568Z,57.373
2022-11-18T14:10:42.888Z,57.125
2022-11-18T14:25:45.171Z,56.525
2022-11-18T14:40:47.717Z,56.805
2022-11-18T14:55:49.988Z,55.946
2022-11-18T15:10:52.214Z,56.938
2022-11-18T15:25:54.478Z,57.266
2022-11-18T15:40:56.929Z,58.073
2022-11-18T15:55:59.134Z,57.263
2022-11-18T16:11:01.397Z,56.953
2022-11-18T16:26:03.839Z,56.648
2022-11-18T16:41:06.235Z,56.966
2022-11-18T16:56:08.486Z,55.973
2022-11-18T17:11:10.701Z,55.16
2022-11-18T17:26:13.014Z,55.419
2022-11-18T17:41:15.234Z,55.076
2022-11-18T17:56:17.617Z,56.991
2022-11-18T18:11:21.451Z,55.396
2022-11-18T18:26:28.284Z,53.635
2022-11-18T18:41:33.626Z,54.824
2022-11-18T18:56:35.872Z,54.547
2022-11-18T19:11:38.100Z,55.374
2022-11-18T19:26:40.389Z,54.174
2022-11-18T19:41:42.641Z,52.179
2022-11-18T19:56:44.830Z,51.11
2022-11-18T20:11:47.103Z,49.624
2022-11-18T20:26:49.434Z,49.511
2022-11-18T20:41:51.662Z,48.726
2022-11-18T20:56:53.907Z,50.168
2022-11-18T21:11:56.172Z,48.099
2022-11-18T21:26:58.459Z,47.542
2022-11-18T21:42:00.645Z,47.324
2022-11-18T21:57:02.861Z,47.21
2022-11-18T22:12:05.095Z,47.942
2022-11-18T22:27:11.306Z,49.349
2022-11-18T22:42:13.979Z,52.403
2022-11-18T22:57:16.226Z,51.543
2022-11-18T23:12:18.427Z,51.989
2022-11-18T23:27:20.655Z,51.02
2022-11-18T23:42:22.905Z,50.812
2022-11-18T23:57:25.166Z,51.145
